Terminal Aerodrome Forecast
Issued by NWS

Home | Current Version | Previous Version | Text Only | Print | Product List | Glossary On
Versions: 1 2 3 4 5 6 7 8 9 10 11 12 13 14 15
000
FTUS43 KIND 292300
TAFHUF
TAF
KHUF 292330Z 3000/3024 17007KT P6SM SCT045 BKN080
     FM300200 17005KT P6SM SCT040 BKN120
     FM300900 18006KT 6SM BR VCTS BKN040CB
     FM301500 21012G20KT 6SM -SHRA VCTS BKN040CB=

USA.gov is the U.S. government's official web portal to all federal, state and local government web resources and services.